DLH2MA EDDP-EDDM
Flight info
| Callsign | DLH2MA |
|---|---|
| Flight time | 0h 39m |
| Altitude | 28000 |
| Route | GOLAT2Q/08L GOLAT T202 ALOSO/N0463F290 T703 LULAR/N0462F300 T105 LANDU LANDU2B |
| Aircraft | A320/M-SDE3FGHIRWY/LB1 |
Departure
| Time | 2026-05-06 20:28 |
|---|---|
| Airport | Leipzig/Halle Airport (EDDP) |
Arrival
| Time | 2026-05-06 21:07 |
|---|---|
| Airport | Munich Airport (EDDM) |
| Time | Latitude | Longitude | Altitude | Speed | Heading |
|---|---|---|---|---|---|
| 2026-05-06 20:02 | 51.41871 | 12.22261 | 431 ft | 0 kts | 15° |
| 2026-05-06 20:20 | 51.41860 | 12.22256 | 424 ft | 4 kts | 15° |
| 2026-05-06 20:20 | 51.41834 | 12.22245 | 426 ft | 4 kts | 15° |
| 2026-05-06 20:20 | 51.41808 | 12.22236 | 426 ft | 4 kts | 3° |
| 2026-05-06 20:21 | 51.41782 | 12.22239 | 429 ft | 4 kts | 335° |
| 2026-05-06 20:21 | 51.41766 | 12.22261 | 424 ft | 1 kts | 285° |
| 2026-05-06 20:21 | 51.41765 | 12.22269 | 433 ft | 0 kts | 285° |
| 2026-05-06 20:23 | 51.41768 | 12.22253 | 432 ft | 7 kts | 287° |
| 2026-05-06 20:24 | 51.41790 | 12.22128 | 436 ft | 12 kts | 284° |
| 2026-05-06 20:24 | 51.41811 | 12.21999 | 426 ft | 14 kts | 285° |
| 2026-05-06 20:24 | 51.41837 | 12.21845 | 426 ft | 14 kts | 285° |
| 2026-05-06 20:24 | 51.41869 | 12.21660 | 433 ft | 19 kts | 285° |
| 2026-05-06 20:25 | 51.41904 | 12.21456 | 430 ft | 19 kts | 285° |
| 2026-05-06 20:25 | 51.41943 | 12.21231 | 426 ft | 23 kts | 285° |
| 2026-05-06 20:25 | 51.41985 | 12.20982 | 422 ft | 19 kts | 289° |
| 2026-05-06 20:25 | 51.42110 | 12.20945 | 421 ft | 24 kts | 15° |
| 2026-05-06 20:26 | 51.42282 | 12.21021 | 428 ft | 25 kts | 15° |
| 2026-05-06 20:26 | 51.42444 | 12.21090 | 426 ft | 24 kts | 15° |
| 2026-05-06 20:26 | 51.42610 | 12.21164 | 436 ft | 25 kts | 15° |
| 2026-05-06 20:26 | 51.42778 | 12.21238 | 436 ft | 21 kts | 15° |
| 2026-05-06 20:27 | 51.42894 | 12.21299 | 429 ft | 18 kts | 33° |
| 2026-05-06 20:27 | 51.42999 | 12.21459 | 429 ft | 22 kts | 45° |
| 2026-05-06 20:27 | 51.43114 | 12.21656 | 421 ft | 25 kts | 57° |
| 2026-05-06 20:27 | 51.43142 | 12.21937 | 433 ft | 29 kts | 85° |
| 2026-05-06 20:28 | 51.43170 | 12.22544 | 433 ft | 90 kts | 85° |
| 2026-05-06 20:28 | 51.43234 | 12.23884 | 447 ft | 148 kts | 85° |
| 2026-05-06 20:28 | 51.43312 | 12.25576 | 1090 ft | 151 kts | 84° |
| 2026-05-06 20:28 | 51.43388 | 12.27250 | 1896 ft | 154 kts | 87° |
| 2026-05-06 20:29 | 51.43472 | 12.29103 | 2275 ft | 178 kts | 88° |
| 2026-05-06 20:29 | 51.43564 | 12.31185 | 2737 ft | 196 kts | 88° |
| 2026-05-06 20:29 | 51.43663 | 12.33475 | 3097 ft | 218 kts | 88° |
| 2026-05-06 20:29 | 51.43771 | 12.36045 | 3550 ft | 243 kts | 88° |
| 2026-05-06 20:30 | 51.43890 | 12.38880 | 4145 ft | 264 kts | 86° |
| 2026-05-06 20:30 | 51.44180 | 12.44959 | 5980 ft | 280 kts | 85° |
| 2026-05-06 20:30 | 51.44300 | 12.48093 | 6923 ft | 285 kts | 93° |
| 2026-05-06 20:31 | 51.43790 | 12.51153 | 7817 ft | 288 kts | 120° |
| 2026-05-06 20:31 | 51.42499 | 12.53573 | 8762 ft | 288 kts | 146° |
| 2026-05-06 20:31 | 51.40699 | 12.54882 | 9745 ft | 285 kts | 171° |
| 2026-05-06 20:31 | 51.38700 | 12.55217 | 10347 ft | 300 kts | 178° |
| 2026-05-06 20:32 | 51.36539 | 12.55447 | 10731 ft | 321 kts | 178° |
| 2026-05-06 20:32 | 51.34248 | 12.55668 | 11135 ft | 341 kts | 178° |
| 2026-05-06 20:32 | 51.31827 | 12.55828 | 11616 ft | 353 kts | 184° |
| 2026-05-06 20:32 | 51.29456 | 12.55022 | 12301 ft | 357 kts | 204° |
| 2026-05-06 20:33 | 51.27251 | 12.53179 | 13122 ft | 359 kts | 210° |
| 2026-05-06 20:33 | 51.25058 | 12.51235 | 13886 ft | 363 kts | 210° |
| 2026-05-06 20:33 | 51.22845 | 12.49258 | 14601 ft | 366 kts | 210° |
| 2026-05-06 20:33 | 51.20613 | 12.47269 | 15316 ft | 369 kts | 210° |
| 2026-05-06 20:34 | 51.18361 | 12.45267 | 16028 ft | 372 kts | 210° |
| 2026-05-06 20:34 | 51.16096 | 12.43254 | 16726 ft | 375 kts | 210° |
| 2026-05-06 20:34 | 51.13807 | 12.41227 | 17379 ft | 379 kts | 210° |
| 2026-05-06 20:34 | 51.11490 | 12.39180 | 18051 ft | 382 kts | 210° |
| 2026-05-06 20:35 | 51.09154 | 12.37119 | 18578 ft | 385 kts | 210° |
| 2026-05-06 20:35 | 51.06807 | 12.35050 | 18953 ft | 387 kts | 210° |
| 2026-05-06 20:35 | 51.04441 | 12.32969 | 19547 ft | 389 kts | 209° |
| 2026-05-06 20:35 | 51.02063 | 12.30883 | 20119 ft | 392 kts | 209° |
| 2026-05-06 20:36 | 50.99671 | 12.28787 | 20684 ft | 394 kts | 209° |
| 2026-05-06 20:36 | 50.97146 | 12.27080 | 21213 ft | 398 kts | 195° |
| 2026-05-06 20:36 | 50.94380 | 12.26587 | 21733 ft | 404 kts | 181° |
| 2026-05-06 20:36 | 50.91557 | 12.26690 | 22247 ft | 407 kts | 180° |
| 2026-05-06 20:37 | 50.88716 | 12.26829 | 22750 ft | 411 kts | 180° |
| 2026-05-06 20:37 | 50.85847 | 12.26983 | 23240 ft | 414 kts | 180° |
| 2026-05-06 20:37 | 50.82962 | 12.27138 | 23691 ft | 416 kts | 180° |
| 2026-05-06 20:37 | 50.80064 | 12.27289 | 24128 ft | 417 kts | 180° |
| 2026-05-06 20:38 | 50.77195 | 12.27434 | 24575 ft | 418 kts | 180° |
| 2026-05-06 20:38 | 50.74272 | 12.27578 | 25045 ft | 419 kts | 181° |
| 2026-05-06 20:38 | 50.71357 | 12.27716 | 25496 ft | 420 kts | 181° |
| 2026-05-06 20:38 | 50.68433 | 12.27856 | 25945 ft | 421 kts | 181° |
| 2026-05-06 20:39 | 50.65500 | 12.27995 | 26372 ft | 422 kts | 181° |
| 2026-05-06 20:39 | 50.62558 | 12.28129 | 26799 ft | 423 kts | 181° |
| 2026-05-06 20:39 | 50.59620 | 12.28262 | 27205 ft | 424 kts | 181° |
| 2026-05-06 20:39 | 50.56668 | 12.28401 | 27603 ft | 425 kts | 181° |
| 2026-05-06 20:40 | 50.53707 | 12.28543 | 28003 ft | 426 kts | 181° |
| 2026-05-06 20:40 | 50.50736 | 12.28684 | 28393 ft | 427 kts | 181° |
| 2026-05-06 20:40 | 50.47765 | 12.28826 | 28759 ft | 428 kts | 181° |
| 2026-05-06 20:40 | 50.44784 | 12.28968 | 29146 ft | 428 kts | 181° |
| 2026-05-06 20:41 | 50.41808 | 12.29110 | 29640 ft | 426 kts | 181° |
| 2026-05-06 20:41 | 50.38849 | 12.29255 | 29793 ft | 423 kts | 181° |
| 2026-05-06 20:41 | 50.35928 | 12.29396 | 29808 ft | 418 kts | 181° |
| 2026-05-06 20:42 | 50.30118 | 12.29659 | 29802 ft | 416 kts | 181° |
| 2026-05-06 20:42 | 50.24327 | 12.29926 | 29804 ft | 416 kts | 181° |
| 2026-05-06 20:43 | 50.18583 | 12.30192 | 29809 ft | 416 kts | 180° |
| 2026-05-06 20:43 | 50.12802 | 12.30467 | 29807 ft | 415 kts | 180° |
| 2026-05-06 20:44 | 50.07031 | 12.30740 | 29802 ft | 415 kts | 180° |
| 2026-05-06 20:44 | 50.02232 | 12.30955 | 29804 ft | 414 kts | 180° |
| 2026-05-06 20:45 | 49.96467 | 12.31219 | 29794 ft | 414 kts | 180° |
| 2026-05-06 20:45 | 49.90700 | 12.31491 | 29802 ft | 414 kts | 180° |
| 2026-05-06 20:46 | 49.84946 | 12.31764 | 29809 ft | 413 kts | 180° |
| 2026-05-06 20:46 | 49.79197 | 12.32034 | 29796 ft | 412 kts | 181° |
| 2026-05-06 20:47 | 49.73534 | 12.33005 | 29797 ft | 416 kts | 167° |
| 2026-05-06 20:47 | 49.68302 | 12.36945 | 29800 ft | 425 kts | 147° |
| 2026-05-06 20:48 | 49.63580 | 12.42485 | 29804 ft | 426 kts | 147° |
| 2026-05-06 20:48 | 49.58840 | 12.47998 | 29807 ft | 426 kts | 147° |
| 2026-05-06 20:49 | 49.54097 | 12.53497 | 29810 ft | 426 kts | 148° |
| 2026-05-06 20:49 | 49.51539 | 12.55699 | 29811 ft | 419 kts | 162° |
| 2026-05-06 20:49 | 49.48733 | 12.56723 | 29802 ft | 415 kts | 176° |
| 2026-05-06 20:49 | 49.45855 | 12.56557 | 29627 ft | 416 kts | 189° |
| 2026-05-06 20:50 | 49.43055 | 12.55535 | 28094 ft | 412 kts | 195° |
| 2026-05-06 20:50 | 49.40272 | 12.54325 | 26207 ft | 419 kts | 196° |
| 2026-05-06 20:50 | 49.37500 | 12.53032 | 25035 ft | 412 kts | 197° |
| 2026-05-06 20:50 | 49.34779 | 12.51734 | 24201 ft | 415 kts | 197° |
| 2026-05-06 20:51 | 49.31991 | 12.50413 | 23413 ft | 413 kts | 197° |
| 2026-05-06 20:51 | 49.29273 | 12.49154 | 22550 ft | 412 kts | 197° |
| 2026-05-06 20:51 | 49.26536 | 12.47916 | 21801 ft | 409 kts | 196° |
| 2026-05-06 20:51 | 49.23812 | 12.46703 | 21075 ft | 406 kts | 196° |
| 2026-05-06 20:52 | 49.21122 | 12.45514 | 20372 ft | 401 kts | 196° |
| 2026-05-06 20:52 | 49.18448 | 12.44335 | 19682 ft | 398 kts | 197° |
| 2026-05-06 20:52 | 49.15790 | 12.43161 | 18995 ft | 396 kts | 197° |
| 2026-05-06 20:52 | 49.13150 | 12.41990 | 18333 ft | 394 kts | 197° |
| 2026-05-06 20:53 | 49.10531 | 12.40823 | 17651 ft | 391 kts | 197° |
| 2026-05-06 20:53 | 49.07935 | 12.39668 | 17020 ft | 386 kts | 197° |
| 2026-05-06 20:53 | 49.05372 | 12.38528 | 16441 ft | 380 kts | 197° |
| 2026-05-06 20:53 | 49.02855 | 12.37410 | 15880 ft | 374 kts | 197° |
| 2026-05-06 20:54 | 49.00372 | 12.36311 | 15344 ft | 369 kts | 198° |
| 2026-05-06 20:54 | 48.97923 | 12.35230 | 14813 ft | 364 kts | 198° |
| 2026-05-06 20:54 | 48.95507 | 12.34169 | 14293 ft | 359 kts | 198° |
| 2026-05-06 20:54 | 48.93120 | 12.33120 | 13770 ft | 355 kts | 198° |
| 2026-05-06 20:55 | 48.90755 | 12.32081 | 13189 ft | 351 kts | 198° |
| 2026-05-06 20:55 | 48.88450 | 12.31069 | 12622 ft | 348 kts | 199° |
| 2026-05-06 20:55 | 48.86125 | 12.30045 | 12047 ft | 345 kts | 199° |
| 2026-05-06 20:55 | 48.83828 | 12.29035 | 11437 ft | 342 kts | 199° |
| 2026-05-06 20:56 | 48.81560 | 12.28038 | 10996 ft | 335 kts | 199° |
| 2026-05-06 20:56 | 48.79378 | 12.27085 | 10870 ft | 318 kts | 199° |
| 2026-05-06 20:56 | 48.77297 | 12.26177 | 10750 ft | 304 kts | 199° |
| 2026-05-06 20:56 | 48.75311 | 12.25310 | 10629 ft | 291 kts | 200° |
| 2026-05-06 20:57 | 48.73405 | 12.24478 | 10500 ft | 279 kts | 200° |
| 2026-05-06 20:57 | 48.71570 | 12.23674 | 10211 ft | 271 kts | 200° |
| 2026-05-06 20:57 | 48.69767 | 12.22880 | 9970 ft | 269 kts | 200° |
| 2026-05-06 20:57 | 48.67978 | 12.22091 | 9783 ft | 268 kts | 200° |
| 2026-05-06 20:58 | 48.66191 | 12.21305 | 9654 ft | 267 kts | 200° |
| 2026-05-06 20:58 | 48.64403 | 12.20522 | 9508 ft | 267 kts | 200° |
| 2026-05-06 20:58 | 48.62620 | 12.19740 | 9372 ft | 267 kts | 200° |
| 2026-05-06 20:58 | 48.60828 | 12.18954 | 9247 ft | 267 kts | 200° |
| 2026-05-06 20:59 | 48.59028 | 12.18166 | 8615 ft | 271 kts | 200° |
| 2026-05-06 20:59 | 48.57230 | 12.17384 | 7903 ft | 268 kts | 200° |
| 2026-05-06 20:59 | 48.55437 | 12.16609 | 7192 ft | 266 kts | 201° |
| 2026-05-06 20:59 | 48.53661 | 12.15842 | 6501 ft | 265 kts | 201° |
| 2026-05-06 21:00 | 48.51885 | 12.15075 | 5791 ft | 265 kts | 201° |
| 2026-05-06 21:00 | 48.50164 | 12.14334 | 5537 ft | 247 kts | 202° |
| 2026-05-06 21:00 | 48.48586 | 12.13663 | 5487 ft | 226 kts | 202° |
| 2026-05-06 21:00 | 48.47113 | 12.13036 | 5435 ft | 216 kts | 202° |
| 2026-05-06 21:01 | 48.45700 | 12.12433 | 5373 ft | 206 kts | 202° |
| 2026-05-06 21:01 | 48.44351 | 12.11853 | 5299 ft | 197 kts | 203° |
| 2026-05-06 21:01 | 48.43049 | 12.11290 | 5206 ft | 193 kts | 205° |
| 2026-05-06 21:01 | 48.41764 | 12.10729 | 5128 ft | 192 kts | 205° |
| 2026-05-06 21:02 | 48.40503 | 12.10155 | 5072 ft | 191 kts | 211° |
| 2026-05-06 21:02 | 48.39414 | 12.09094 | 4968 ft | 181 kts | 233° |
| 2026-05-06 21:02 | 48.38739 | 12.07630 | 4839 ft | 166 kts | 251° |
| 2026-05-06 21:02 | 48.38479 | 12.06000 | 4654 ft | 155 kts | 266° |
| 2026-05-06 21:03 | 48.38365 | 12.04472 | 4450 ft | 140 kts | 266° |
| 2026-05-06 21:03 | 48.38259 | 12.03049 | 4268 ft | 134 kts | 266° |
| 2026-05-06 21:03 | 48.38157 | 12.01669 | 4091 ft | 132 kts | 266° |
| 2026-05-06 21:03 | 48.38056 | 12.00305 | 3913 ft | 131 kts | 266° |
| 2026-05-06 21:04 | 48.37955 | 11.98949 | 3742 ft | 130 kts | 266° |
| 2026-05-06 21:04 | 48.37854 | 11.97604 | 3568 ft | 129 kts | 266° |
| 2026-05-06 21:04 | 48.37754 | 11.96258 | 3397 ft | 129 kts | 266° |
| 2026-05-06 21:04 | 48.37654 | 11.94925 | 3227 ft | 128 kts | 265° |
| 2026-05-06 21:05 | 48.37554 | 11.93591 | 3054 ft | 128 kts | 265° |
| 2026-05-06 21:05 | 48.37454 | 11.92255 | 2878 ft | 129 kts | 264° |
| 2026-05-06 21:05 | 48.37353 | 11.90915 | 2704 ft | 128 kts | 265° |
| 2026-05-06 21:05 | 48.37253 | 11.89585 | 2528 ft | 128 kts | 265° |
| 2026-05-06 21:06 | 48.37159 | 11.88240 | 2333 ft | 131 kts | 264° |
| 2026-05-06 21:06 | 48.37056 | 11.86900 | 2121 ft | 128 kts | 262° |
| 2026-05-06 21:06 | 48.36955 | 11.85563 | 2000 ft | 129 kts | 264° |
| 2026-05-06 21:06 | 48.36855 | 11.84239 | 1795 ft | 126 kts | 262° |
| 2026-05-06 21:07 | 48.36752 | 11.82951 | 1637 ft | 126 kts | 262° |
| 2026-05-06 21:07 | 48.36644 | 11.81646 | 1488 ft | 121 kts | 262° |
| 2026-05-06 21:07 | 48.36567 | 11.80558 | 1474 ft | 82 kts | 264° |
| 2026-05-06 21:07 | 48.36514 | 11.79899 | 1483 ft | 44 kts | 257° |
| 2026-05-06 21:08 | 48.36384 | 11.79568 | 1478 ft | 35 kts | 233° |
| 2026-05-06 21:08 | 48.36290 | 11.79378 | 1478 ft | 12 kts | 234° |
| 2026-05-06 21:08 | 48.36283 | 11.79363 | 1471 ft | 0 kts | 233° |
| 2026-05-06 21:09 | 48.36275 | 11.79348 | 1472 ft | 6 kts | 231° |
| 2026-05-06 21:10 | 48.36218 | 11.79299 | 1477 ft | 11 kts | 190° |
| 2026-05-06 21:10 | 48.36129 | 11.79310 | 1473 ft | 14 kts | 173° |
| 2026-05-06 21:10 | 48.36024 | 11.79327 | 1471 ft | 16 kts | 173° |
| 2026-05-06 21:10 | 48.35923 | 11.79358 | 1476 ft | 16 kts | 152° |
| 2026-05-06 21:11 | 48.35815 | 11.79391 | 1477 ft | 16 kts | 173° |
| 2026-05-06 21:11 | 48.35697 | 11.79412 | 1482 ft | 18 kts | 173° |
| 2026-05-06 21:11 | 48.35581 | 11.79432 | 1485 ft | 14 kts | 173° |
| 2026-05-06 21:11 | 48.35478 | 11.79449 | 1485 ft | 16 kts | 174° |
| 2026-05-06 21:12 | 48.35378 | 11.79467 | 1475 ft | 13 kts | 173° |
| 2026-05-06 21:12 | 48.35342 | 11.79473 | 1476 ft | 2 kts | 173° |
| 2026-05-06 21:12 | 48.35329 | 11.79475 | 1475 ft | 1 kts | 175° |
| 2026-05-06 21:12 | 48.35321 | 11.79465 | 1480 ft | 3 kts | 236° |
| 2026-05-06 21:13 | 48.35312 | 11.79417 | 1476 ft | 7 kts | 260° |
| 2026-05-06 21:13 | 48.35307 | 11.79356 | 1485 ft | 4 kts | 263° |
| 2026-05-06 21:13 | 48.35305 | 11.79325 | 1485 ft | 0 kts | 263° |